createdAt,value
2022-08-14T00:02:16.217Z,59.04
2022-08-14T00:04:45.589Z,58.87
2022-08-14T00:07:14.624Z,58.24
2022-08-14T00:10:01.651Z,58.56
2022-08-14T00:12:33.838Z,57.60
2022-08-14T00:15:09.081Z,57.75
2022-08-14T00:17:38.014Z,57.05
2022-08-14T00:20:12.584Z,57.10
2022-08-14T00:22:56.287Z,57.06
2022-08-14T00:25:25.087Z,57.08
2022-08-14T00:28:11.057Z,57.33
2022-08-14T00:30:44.391Z,57.42
2022-08-14T00:33:15.304Z,56.92
2022-08-14T00:36:37.490Z,57.04
2022-08-14T00:38:34.870Z,57.13
2022-08-14T00:41:06.891Z,56.54
2022-08-14T00:43:34.904Z,57.16
2022-08-14T00:46:08.066Z,57.18
2022-08-14T00:48:36.905Z,57.22
2022-08-14T00:51:10.991Z,57.18
2022-08-14T00:53:39.751Z,56.63
2022-08-14T00:56:11.083Z,57.22
2022-08-14T00:58:45.441Z,56.94
2022-08-14T01:01:41.281Z,57.46
2022-08-14T01:04:09.809Z,56.61
2022-08-14T01:06:58.816Z,56.91
2022-08-14T01:09:27.498Z,56.91
2022-08-14T01:11:57.547Z,56.50
2022-08-14T01:14:31.417Z,57.24
2022-08-14T01:16:59.319Z,57.57
2022-08-14T01:19:49.318Z,57.71
2022-08-14T01:22:19.332Z,56.90
2022-08-14T01:24:47.320Z,56.88
2022-08-14T01:27:17.405Z,57.31
2022-08-14T01:29:59.144Z,57.08
2022-08-14T01:32:31.455Z,57.29
2022-08-14T01:35:20.189Z,57.56
2022-08-14T01:37:58.667Z,57.38
2022-08-14T01:40:36.140Z,57.48
2022-08-14T01:43:05.052Z,57.65
2022-08-14T01:45:40.147Z,57.79
2022-08-14T01:48:13.982Z,57.17
2022-08-14T01:50:42.711Z,57.41
2022-08-14T01:53:13.553Z,57.92
2022-08-14T01:55:42.281Z,57.52
2022-08-14T01:58:19.456Z,57.93
2022-08-14T02:00:53.905Z,58.46
2022-08-14T02:03:23.278Z,58.23
2022-08-14T02:05:51.136Z,58.57
2022-08-14T02:08:22.576Z,57.94
2022-08-14T02:11:20.370Z,58.04
2022-08-14T02:13:51.210Z,58.75
2022-08-14T02:16:22.489Z,58.77
2022-08-14T02:18:50.958Z,58.74
2022-08-14T02:21:23.147Z,59.73
2022-08-14T02:23:54.392Z,59.99
2022-08-14T02:26:29.723Z,59.24
2022-08-14T02:29:03.536Z,58.33
2022-08-14T02:31:42.412Z,58.79
2022-08-14T02:34:22.294Z,58.98
2022-08-14T02:37:03.537Z,59.72
2022-08-14T02:39:37.198Z,59.67
2022-08-14T02:42:06.463Z,59.21
2022-08-14T02:44:41.520Z,59.98
2022-08-14T02:47:15.000Z,61.21
2022-08-14T02:49:54.614Z,60.31
2022-08-14T02:52:56.799Z,60.78
2022-08-14T02:55:15.612Z,59.94
2022-08-14T02:57:51.928Z,60.69
2022-08-14T03:00:26.659Z,61.95
2022-08-14T03:02:58.886Z,60.32
2022-08-14T03:05:30.364Z,59.97
2022-08-14T03:08:06.577Z,59.91
2022-08-14T03:10:42.011Z,59.77
2022-08-14T03:13:20.777Z,59.39
2022-08-14T03:15:55.815Z,59.88
2022-08-14T03:18:31.423Z,60.15
2022-08-14T03:21:01.355Z,60.06
2022-08-14T03:23:36.398Z,60.51
2022-08-14T03:26:08.328Z,60.29
2022-08-14T03:28:36.626Z,60.08
2022-08-14T03:31:08.205Z,60.36
2022-08-14T03:33:38.028Z,60.10
2022-08-14T03:37:39.353Z,59.77
2022-08-14T03:39:14.855Z,60.26
2022-08-14T03:41:52.103Z,59.88
2022-08-14T03:45:19.031Z,60.00
2022-08-14T03:47:08.235Z,60.21
2022-08-14T03:49:42.263Z,59.94
2022-08-14T03:52:37.533Z,60.05
2022-08-14T03:54:59.580Z,60.11
2022-08-14T03:57:32.243Z,60.11
2022-08-14T04:00:05.963Z,60.93
2022-08-14T04:02:37.538Z,60.27
2022-08-14T04:05:16.414Z,60.24
2022-08-14T04:08:00.256Z,61.02
2022-08-14T04:10:33.137Z,61.12
2022-08-14T04:13:04.100Z,61.47
2022-08-14T04:15:32.270Z,61.30
2022-08-14T04:18:20.264Z,61.47
2022-08-14T04:20:54.491Z,60.94
2022-08-14T04:23:29.557Z,61.66
2022-08-14T04:26:04.155Z,61.32
2022-08-14T04:29:08.053Z,61.37
2022-08-14T04:32:56.454Z,60.82
2022-08-14T04:34:17.196Z,61.75
2022-08-14T04:37:07.476Z,62.15
2022-08-14T04:39:57.453Z,61.39
2022-08-14T04:42:47.401Z,61.76
2022-08-14T04:45:23.171Z,61.67
2022-08-14T04:48:09.966Z,61.93
2022-08-14T04:50:44.264Z,63.23
2022-08-14T04:53:14.729Z,62.55
2022-08-14T04:55:44.936Z,62.24
2022-08-14T04:58:21.584Z,63.05
2022-08-14T05:00:52.215Z,62.48
2022-08-14T05:03:21.383Z,63.05
2022-08-14T05:05:54.566Z,64.25
2022-08-14T05:08:31.752Z,63.66
2022-08-14T05:11:13.489Z,63.80
2022-08-14T05:16:32.861Z,62.91
2022-08-14T05:19:24.890Z,63.50
2022-08-14T05:21:58.350Z,63.23
2022-08-14T05:24:30.109Z,63.75
2022-08-14T05:26:57.909Z,63.98
2022-08-14T05:29:28.282Z,63.71
2022-08-14T05:31:58.313Z,63.58
2022-08-14T05:34:31.871Z,63.92
2022-08-14T05:37:02.176Z,63.72
2022-08-14T05:39:31.813Z,63.46
2022-08-14T05:42:00.464Z,63.45
2022-08-14T05:44:30.727Z,64.13
2022-08-14T05:47:03.950Z,65.24
2022-08-14T05:49:33.050Z,65.60
2022-08-14T05:52:03.509Z,65.68
2022-08-14T05:54:37.505Z,65.01
2022-08-14T05:57:06.115Z,65.66
2022-08-14T05:59:38.694Z,65.58
2022-08-14T06:02:10.091Z,65.19
2022-08-14T06:04:38.686Z,67.35
2022-08-14T06:07:06.673Z,67.07
2022-08-14T06:09:35.898Z,67.18
2022-08-14T06:12:09.680Z,68.12
2022-08-14T06:14:37.905Z,68.33
2022-08-14T06:17:07.009Z,67.81
2022-08-14T06:19:36.133Z,66.10
2022-08-14T06:22:04.328Z,67.49
2022-08-14T06:24:35.023Z,66.79
2022-08-14T06:27:06.204Z,67.82
2022-08-14T06:29:38.501Z,67.83
2022-08-14T06:32:46.960Z,67.20
2022-08-14T06:35:02.676Z,67.30
2022-08-14T06:37:47.015Z,68.57
2022-08-14T06:40:27.202Z,67.39
2022-08-14T06:42:56.891Z,68.32
2022-08-14T06:45:28.493Z,68.55
2022-08-14T06:47:58.636Z,68.23
2022-08-14T06:50:30.263Z,68.37
2022-08-14T06:52:59.232Z,68.35
2022-08-14T06:55:28.111Z,67.50
2022-08-14T06:57:58.005Z,68.29
2022-08-14T07:00:30.562Z,67.94
2022-08-14T07:03:17.351Z,68.21
2022-08-14T07:05:55.369Z,68.62
2022-08-14T07:08:29.515Z,68.11
2022-08-14T07:11:00.678Z,67.67
2022-08-14T07:13:30.942Z,67.79
2022-08-14T07:16:00.558Z,67.67
2022-08-14T07:18:34.703Z,67.73
2022-08-14T07:21:07.390Z,67.09
2022-08-14T07:23:40.240Z,67.43
2022-08-14T07:26:13.689Z,66.72
2022-08-14T07:28:43.012Z,66.15
2022-08-14T07:31:12.629Z,66.55
2022-08-14T07:33:43.481Z,66.53
2022-08-14T07:36:27.021Z,66.39
2022-08-14T07:38:58.435Z,66.91
2022-08-14T07:41:33.507Z,66.12
2022-08-14T07:44:31.951Z,66.72
2022-08-14T07:46:51.622Z,66.00
2022-08-14T07:49:19.785Z,66.02
2022-08-14T07:51:50.613Z,65.59
2022-08-14T07:54:23.658Z,65.68
2022-08-14T07:56:59.700Z,65.23
2022-08-14T07:59:41.540Z,65.39
2022-08-14T08:02:19.291Z,64.99
2022-08-14T08:04:50.464Z,64.45
2022-08-14T08:07:23.486Z,65.04
2022-08-14T08:09:55.215Z,65.03
2022-08-14T08:12:28.002Z,64.11
2022-08-14T08:15:02.571Z,65.01
2022-08-14T08:17:38.794Z,63.89
2022-08-14T08:20:20.009Z,64.77
2022-08-14T08:22:55.958Z,63.57
2022-08-14T08:25:24.611Z,63.49
2022-08-14T08:27:57.036Z,62.99
2022-08-14T08:30:25.901Z,62.81
2022-08-14T08:32:56.218Z,61.87
2022-08-14T08:35:46.636Z,61.63
2022-08-14T08:39:15.363Z,61.78
2022-08-14T08:41:05.732Z,61.71
2022-08-14T08:43:46.357Z,61.01
2022-08-14T08:46:21.099Z,59.99
2022-08-14T08:48:54.169Z,60.66
2022-08-14T08:51:25.059Z,59.53
2022-08-14T08:56:53.145Z,60.15
2022-08-14T08:59:27.102Z,59.88
2022-08-14T09:02:00.724Z,58.97
2022-08-14T09:04:31.612Z,59.64
2022-08-14T09:07:09.408Z,58.57
2022-08-14T09:09:54.031Z,59.54
2022-08-14T09:12:27.074Z,58.96
2022-08-14T09:15:00.504Z,58.50
2022-08-14T09:17:28.848Z,58.78
2022-08-14T09:19:56.813Z,58.10
2022-08-14T09:22:33.741Z,59.30
2022-08-14T09:25:07.743Z,57.84
2022-08-14T09:27:37.853Z,59.09
2022-08-14T09:30:31.590Z,58.03
2022-08-14T09:33:22.929Z,57.78
2022-08-14T09:36:02.779Z,57.62
2022-08-14T09:38:36.780Z,58.07
2022-08-14T09:41:17.724Z,58.67
2022-08-14T09:43:55.021Z,57.78
2022-08-14T09:46:27.605Z,56.44
2022-08-14T09:49:03.474Z,56.59
2022-08-14T09:51:44.717Z,56.20
2022-08-14T09:54:23.770Z,57.19
2022-08-14T09:56:57.230Z,57.10
2022-08-14T09:59:27.884Z,57.19
2022-08-14T10:01:56.958Z,56.99
2022-08-14T10:04:36.007Z,57.56
2022-08-14T10:07:08.530Z,57.21
2022-08-14T10:09:59.987Z,57.53
2022-08-14T10:12:53.198Z,57.36
2022-08-14T10:15:25.057Z,58.27
2022-08-14T10:18:07.990Z,58.94
2022-08-14T10:20:42.236Z,58.94
2022-08-14T10:23:16.200Z,59.24
2022-08-14T10:25:46.213Z,59.10
2022-08-14T10:28:39.423Z,59.10
2022-08-14T10:31:04.251Z,57.88
2022-08-14T10:33:33.554Z,57.94
2022-08-14T10:36:06.256Z,58.16
2022-08-14T10:38:43.263Z,57.73
2022-08-14T10:41:19.869Z,57.97
2022-08-14T10:44:07.238Z,58.53
2022-08-14T10:47:40.065Z,58.38
2022-08-14T10:49:57.129Z,58.07
2022-08-14T10:52:27.309Z,58.29
2022-08-14T10:55:08.131Z,58.69
2022-08-14T10:57:47.033Z,58.04
2022-08-14T11:00:20.666Z,58.01
2022-08-14T11:03:01.026Z,58.00
2022-08-14T11:05:41.645Z,57.98
2022-08-14T11:08:12.815Z,58.71
2022-08-14T11:10:44.313Z,58.21
2022-08-14T11:13:17.203Z,58.56
2022-08-14T11:15:48.822Z,58.36
2022-08-14T11:18:20.550Z,57.70
2022-08-14T11:21:02.974Z,57.60
2022-08-14T11:23:38.201Z,58.03
2022-08-14T11:26:10.435Z,57.76
2022-08-14T11:28:47.731Z,57.76
2022-08-14T11:31:20.783Z,57.41
2022-08-14T11:33:55.075Z,57.41
2022-08-14T11:37:02.817Z,57.02
2022-08-14T11:39:34.028Z,56.69
2022-08-14T11:42:57.282Z,56.69
2022-08-14T11:44:56.719Z,56.37
2022-08-14T11:47:35.353Z,56.75
2022-08-14T11:50:34.033Z,55.95
2022-08-14T11:53:06.790Z,55.72
2022-08-14T11:55:36.013Z,52.54
2022-08-14T11:58:09.332Z,52.16
2022-08-14T12:00:47.753Z,52.68
2022-08-14T12:03:27.191Z,52.21
2022-08-14T12:06:06.392Z,51.28
2022-08-14T12:08:59.902Z,50.98
2022-08-14T12:11:44.215Z,51.48
2022-08-14T12:14:29.854Z,49.61
2022-08-14T12:17:27.560Z,49.89
2022-08-14T12:19:58.677Z,50.09
2022-08-14T12:22:34.832Z,49.48
2022-08-14T12:25:11.114Z,50.35
2022-08-14T12:27:52.008Z,49.57
2022-08-14T12:30:37.396Z,50.52
2022-08-14T12:33:08.336Z,50.39
2022-08-14T12:35:39.740Z,50.86
2022-08-14T12:38:08.561Z,50.05
2022-08-14T12:40:48.731Z,51.07
2022-08-14T12:43:18.038Z,51.08
2022-08-14T12:45:49.725Z,51.17
2022-08-14T12:48:21.443Z,50.95
2022-08-14T12:51:00.745Z,51.99
2022-08-14T12:53:38.351Z,50.38
2022-08-14T12:56:22.240Z,50.10
2022-08-14T12:58:56.733Z,50.75
2022-08-14T13:01:27.241Z,48.93
2022-08-14T13:04:07.123Z,50.15
2022-08-14T13:06:37.125Z,50.49
2022-08-14T13:09:10.984Z,50.96
2022-08-14T13:11:44.748Z,50.29
2022-08-14T13:14:17.278Z,49.62
2022-08-14T13:16:50.163Z,49.83
2022-08-14T13:19:19.851Z,49.85
2022-08-14T13:21:59.025Z,49.90
2022-08-14T13:24:34.607Z,49.81
2022-08-14T13:27:04.685Z,49.70
2022-08-14T13:29:37.504Z,49.90
2022-08-14T13:32:05.895Z,49.36
2022-08-14T13:34:34.415Z,49.68
2022-08-14T13:37:06.957Z,49.65
2022-08-14T13:39:36.691Z,49.68
2022-08-14T13:42:10.996Z,50.55
2022-08-14T13:44:43.331Z,49.70
2022-08-14T13:47:14.516Z,48.74
2022-08-14T13:49:57.427Z,49.05
2022-08-14T13:52:52.091Z,48.57
2022-08-14T13:55:17.130Z,48.56
2022-08-14T13:57:49.376Z,49.48
2022-08-14T14:00:21.799Z,48.55
2022-08-14T14:03:01.237Z,48.50
2022-08-14T14:05:53.230Z,48.42
2022-08-14T14:08:46.723Z,48.90
2022-08-14T14:11:09.735Z,48.06
2022-08-14T14:13:38.974Z,48.55
2022-08-14T14:16:15.576Z,48.51
2022-08-14T14:19:00.234Z,47.66
2022-08-14T14:21:30.511Z,48.49
2022-08-14T14:24:03.064Z,47.40
2022-08-14T14:26:33.284Z,47.53
2022-08-14T14:29:04.712Z,47.36
2022-08-14T14:31:32.716Z,46.74
2022-08-14T14:34:07.393Z,46.66
2022-08-14T14:36:50.157Z,46.50
2022-08-14T14:39:25.340Z,46.80
2022-08-14T14:41:56.732Z,46.59
2022-08-14T14:44:26.792Z,46.35
2022-08-14T14:46:54.971Z,47.49
2022-08-14T14:49:41.589Z,46.73
2022-08-14T14:52:23.209Z,45.96
2022-08-14T14:54:58.406Z,45.08
2022-08-14T14:57:35.171Z,45.35
2022-08-14T15:00:06.493Z,46.11
2022-08-14T15:02:38.018Z,46.04
2022-08-14T15:05:08.333Z,45.85
2022-08-14T15:07:36.805Z,46.47
2022-08-14T15:10:27.553Z,46.67
2022-08-14T15:12:57.606Z,46.95
2022-08-14T15:15:25.725Z,46.57
2022-08-14T15:17:55.045Z,46.51
2022-08-14T15:20:30.698Z,47.00
2022-08-14T15:23:00.606Z,46.73
2022-08-14T15:25:31.643Z,46.98
2022-08-14T15:28:00.666Z,46.79
2022-08-14T15:30:32.743Z,47.24
2022-08-14T15:33:00.768Z,47.17
2022-08-14T15:35:34.011Z,47.27
2022-08-14T15:38:07.782Z,47.75
2022-08-14T15:40:41.041Z,46.82
2022-08-14T15:43:10.740Z,47.43
2022-08-14T15:45:41.377Z,47.15
2022-08-14T15:48:12.583Z,47.92
2022-08-14T15:50:50.955Z,47.93
2022-08-14T15:53:22.123Z,48.06
2022-08-14T15:55:54.441Z,48.50
2022-08-14T15:58:23.421Z,48.29
2022-08-14T16:01:09.587Z,48.31
2022-08-14T16:03:40.896Z,48.85
2022-08-14T16:06:17.478Z,47.87
2022-08-14T16:08:50.007Z,48.46
2022-08-14T16:11:23.917Z,48.40
2022-08-14T16:13:52.035Z,48.44
2022-08-14T16:16:49.141Z,48.96
2022-08-14T16:19:19.005Z,48.75
2022-08-14T16:22:02.691Z,48.74
2022-08-14T16:25:02.117Z,48.07
2022-08-14T16:30:24.814Z,48.73
2022-08-14T16:32:56.834Z,47.65
2022-08-14T16:35:26.575Z,47.84
2022-08-14T16:38:19.674Z,48.56
2022-08-14T16:41:22.949Z,49.64
2022-08-14T16:43:54.076Z,48.83
2022-08-14T16:46:28.006Z,50.03
2022-08-14T16:48:58.732Z,50.26
2022-08-14T16:51:28.038Z,50.59
2022-08-14T16:53:56.804Z,49.64
2022-08-14T16:56:30.908Z,50.00
2022-08-14T16:59:12.250Z,50.43
2022-08-14T17:01:42.081Z,50.43
2022-08-14T17:04:14.952Z,50.40
2022-08-14T17:06:55.147Z,50.68
2022-08-14T17:09:34.587Z,50.07
2022-08-14T17:12:07.380Z,49.55
2022-08-14T17:15:09.942Z,49.36
2022-08-14T17:17:49.866Z,48.45
2022-08-14T17:20:53.422Z,49.60
2022-08-14T17:23:13.685Z,49.82
2022-08-14T17:25:49.361Z,49.52
2022-08-14T17:28:49.827Z,49.52
2022-08-14T17:31:12.420Z,48.61
2022-08-14T17:33:44.550Z,48.89
2022-08-14T17:36:22.483Z,49.39
2022-08-14T17:39:00.406Z,49.21
2022-08-14T17:41:37.489Z,49.89
2022-08-14T17:44:33.675Z,49.85
2022-08-14T17:47:13.313Z,48.93
2022-08-14T17:49:46.511Z,49.55
2022-08-14T17:52:18.185Z,49.36
2022-08-14T17:54:48.904Z,49.46
2022-08-14T17:57:28.606Z,49.98
2022-08-14T17:59:59.256Z,49.20
2022-08-14T18:02:30.948Z,49.25
2022-08-14T18:05:00.743Z,49.81
2022-08-14T18:08:00.292Z,49.96
2022-08-14T18:10:53.107Z,50.28
2022-08-14T18:13:10.699Z,50.64
2022-08-14T18:15:41.258Z,50.58
2022-08-14T18:18:11.157Z,50.57
2022-08-14T18:21:23.533Z,50.32
2022-08-14T18:23:28.589Z,50.00
2022-08-14T18:25:57.747Z,50.25
2022-08-14T18:28:48.460Z,50.51
2022-08-14T18:31:42.024Z,50.16
2022-08-14T18:34:31.726Z,50.05
2022-08-14T18:37:14.374Z,50.26
2022-08-14T18:40:02.325Z,50.33
2022-08-14T18:42:44.274Z,50.61
2022-08-14T18:45:15.519Z,50.38
2022-08-14T18:50:47.670Z,50.54
2022-08-14T18:53:17.020Z,51.15
2022-08-14T18:55:53.683Z,51.40
2022-08-14T18:58:31.122Z,50.92
2022-08-14T19:01:04.708Z,50.98
2022-08-14T19:03:55.983Z,50.45
2022-08-14T19:06:55.906Z,50.93
2022-08-14T19:09:57.769Z,51.30
2022-08-14T19:13:03.008Z,51.85
2022-08-14T19:15:34.131Z,52.12
2022-08-14T19:18:20.071Z,51.90
2022-08-14T19:20:58.386Z,51.53
2022-08-14T19:23:40.658Z,51.82
2022-08-14T19:26:35.252Z,51.77
2022-08-14T19:29:37.846Z,52.11
2022-08-14T19:32:36.501Z,52.28
2022-08-14T19:35:14.974Z,52.24
2022-08-14T19:37:47.268Z,52.42
2022-08-14T19:40:29.400Z,52.27
2022-08-14T19:42:59.225Z,51.83
2022-08-14T19:45:30.020Z,51.53
2022-08-14T19:48:03.449Z,51.60
2022-08-14T19:50:38.911Z,50.93
2022-08-14T19:53:11.075Z,51.10
2022-08-14T19:55:45.435Z,51.71
2022-08-14T19:58:15.011Z,51.56
2022-08-14T20:00:52.298Z,51.08
2022-08-14T20:03:23.853Z,51.18
2022-08-14T20:06:00.315Z,50.96
2022-08-14T20:10:58.747Z,50.93
2022-08-14T20:11:58.571Z,50.98
2022-08-14T20:14:20.486Z,51.39
2022-08-14T20:16:50.469Z,51.39
2022-08-14T20:19:22.452Z,51.65
2022-08-14T20:22:04.772Z,51.66
2022-08-14T20:24:42.066Z,51.90
2022-08-14T20:27:33.711Z,51.85
2022-08-14T20:33:01.245Z,51.31
2022-08-14T20:35:35.141Z,51.04
2022-08-14T20:38:30.216Z,51.27
2022-08-14T20:40:56.150Z,51.83
2022-08-14T20:43:44.428Z,51.57
2022-08-14T20:46:13.992Z,51.50
2022-08-14T20:48:57.712Z,51.88
2022-08-14T20:51:36.778Z,51.70
2022-08-14T20:54:07.071Z,51.23
2022-08-14T20:56:37.820Z,51.95
2022-08-14T20:59:18.272Z,51.73
2022-08-14T21:01:52.002Z,51.83
2022-08-14T21:04:28.922Z,51.79
2022-08-14T21:07:25.817Z,51.62
2022-08-14T21:10:06.119Z,51.94
2022-08-14T21:13:25.787Z,51.71
2022-08-14T21:15:32.144Z,52.05
2022-08-14T21:18:03.060Z,51.88
2022-08-14T21:20:30.907Z,51.78
2022-08-14T21:23:01.161Z,51.44
2022-08-14T21:25:31.882Z,51.74
2022-08-14T21:28:01.682Z,51.21
2022-08-14T21:30:46.747Z,51.96
2022-08-14T21:33:21.591Z,51.72
2022-08-14T21:35:55.441Z,51.69
2022-08-14T21:38:31.293Z,51.86
2022-08-14T21:41:41.570Z,52.20
2022-08-14T21:44:18.360Z,52.07
2022-08-14T21:46:50.799Z,52.70
2022-08-14T21:49:22.825Z,52.98
2022-08-14T21:51:58.817Z,52.77
2022-08-14T21:54:50.052Z,52.75
2022-08-14T21:57:57.054Z,53.05
2022-08-14T22:00:35.968Z,53.25
2022-08-14T22:03:04.073Z,53.64
2022-08-14T22:05:33.380Z,54.47
2022-08-14T22:08:06.222Z,53.92
2022-08-14T22:10:37.456Z,53.89
2022-08-14T22:13:07.275Z,54.49
2022-08-14T22:15:43.815Z,54.70
2022-08-14T22:18:21.532Z,54.44
2022-08-14T22:20:54.032Z,55.21
2022-08-14T22:23:25.794Z,54.03
2022-08-14T22:25:55.014Z,54.21
2022-08-14T22:28:25.619Z,54.88
2022-08-14T22:30:55.293Z,54.94
2022-08-14T22:33:30.961Z,54.42
2022-08-14T22:36:25.506Z,54.71
2022-08-14T22:38:53.981Z,54.51
2022-08-14T22:41:29.138Z,54.37
2022-08-14T22:44:03.582Z,54.82
2022-08-14T22:46:31.318Z,54.79
2022-08-14T22:48:59.504Z,54.56
2022-08-14T22:51:30.406Z,54.72
2022-08-14T22:54:08.605Z,54.68
2022-08-14T22:56:57.683Z,54.52
2022-08-14T22:59:36.743Z,54.86
2022-08-14T23:02:11.827Z,55.80
2022-08-14T23:04:54.463Z,55.22
2022-08-14T23:07:24.529Z,55.06
2022-08-14T23:09:56.782Z,55.59
2022-08-14T23:12:28.747Z,54.83
2022-08-14T23:14:58.022Z,55.11
2022-08-14T23:17:27.409Z,55.01
2022-08-14T23:20:08.370Z,55.00
2022-08-14T23:22:51.285Z,54.97
2022-08-14T23:25:20.147Z,55.26
2022-08-14T23:28:34.097Z,55.21
2022-08-14T23:30:55.557Z,55.60
2022-08-14T23:33:23.244Z,55.22
2022-08-14T23:35:59.489Z,55.36
2022-08-14T23:38:30.633Z,55.29
2022-08-14T23:41:00.721Z,55.72
2022-08-14T23:43:31.408Z,55.38
2022-08-14T23:46:00.321Z,55.44
2022-08-14T23:48:29.279Z,55.68
2022-08-14T23:50:58.969Z,56.26
2022-08-14T23:53:48.481Z,55.93
2022-08-14T23:56:20.306Z,55.54
2022-08-14T23:59:00.850Z,56.13
